createdAt,value
2018-09-11T00:01:09.624Z,19.20
2018-09-11T00:03:38.464Z,19.20
2018-09-11T00:06:07.546Z,19.10
2018-09-11T00:08:36.372Z,19.10
2018-09-11T00:11:05.221Z,19.10
2018-09-11T00:13:34.091Z,19.00
2018-09-11T00:16:02.954Z,19.00
2018-09-11T00:18:31.803Z,19.00
2018-09-11T00:21:00.726Z,19.00
2018-09-11T00:23:29.608Z,18.90
2018-09-11T00:25:58.633Z,18.90
2018-09-11T00:28:27.560Z,18.90
2018-09-11T00:30:56.407Z,18.80
2018-09-11T00:33:25.395Z,18.80
2018-09-11T00:35:54.240Z,18.80
2018-09-11T00:38:23.102Z,18.80
2018-09-11T00:40:52.013Z,18.70
2018-09-11T00:43:20.865Z,18.70
2018-09-11T00:45:49.711Z,18.70
2018-09-11T00:48:18.556Z,18.70
2018-09-11T00:50:47.692Z,18.60
2018-09-11T00:53:17.024Z,18.60
2018-09-11T00:55:45.888Z,18.60
2018-09-11T00:58:14.727Z,18.60
2018-09-11T01:00:43.609Z,18.50
2018-09-11T01:03:12.463Z,18.50
2018-09-11T01:05:41.303Z,18.50
2018-09-11T01:08:10.217Z,18.50
2018-09-11T01:10:39.044Z,18.50
2018-09-11T01:13:07.921Z,18.50
2018-09-11T01:15:36.767Z,18.40
2018-09-11T01:18:05.630Z,18.40
2018-09-11T01:20:34.507Z,18.40
2018-09-11T01:23:03.401Z,18.40
2018-09-11T01:25:32.237Z,18.40
2018-09-11T01:28:01.085Z,18.30
2018-09-11T01:30:29.930Z,18.30
2018-09-11T01:32:58.824Z,18.30
2018-09-11T01:35:27.691Z,18.30
2018-09-11T01:37:56.500Z,18.30
2018-09-11T01:40:25.339Z,18.30
2018-09-11T01:42:54.147Z,18.30
2018-09-11T01:45:22.958Z,18.20
2018-09-11T01:47:51.779Z,18.30
2018-09-11T01:50:20.627Z,18.20
2018-09-11T01:52:49.471Z,18.20
2018-09-11T01:55:18.308Z,18.20
2018-09-11T01:57:47.740Z,18.20
2018-09-11T02:00:17.363Z,18.20
2018-09-11T02:02:46.780Z,18.20
2018-09-11T02:05:15.691Z,18.20
2018-09-11T02:07:44.657Z,18.20
2018-09-11T02:10:13.995Z,18.20
2018-09-11T02:12:42.799Z,18.20
2018-09-11T02:15:11.847Z,18.20
2018-09-11T02:17:41.191Z,18.10
2018-09-11T02:20:10.109Z,18.10
2018-09-11T02:22:38.950Z,18.10
2018-09-11T02:25:07.816Z,18.10
2018-09-11T02:27:36.653Z,18.10
2018-09-11T02:30:05.497Z,18.10
2018-09-11T02:32:34.325Z,18.10
2018-09-11T02:35:03.143Z,18.10
2018-09-11T02:37:31.961Z,18.10
2018-09-11T02:40:00.764Z,18.10
2018-09-11T02:44:58.091Z,16.80
2018-09-11T02:47:26.928Z,17.50
2018-09-11T02:49:55.764Z,19.20
2018-09-11T02:52:24.601Z,18.00
2018-09-11T02:54:53.436Z,18.00
2018-09-11T02:57:22.288Z,18.00
2018-09-11T02:59:51.129Z,18.00
2018-09-11T03:02:20.288Z,18.00
2018-09-11T03:04:49.429Z,18.00
2018-09-11T03:07:18.280Z,18.00
2018-09-11T03:09:47.119Z,18.00
2018-09-11T03:12:15.964Z,18.00
2018-09-11T03:14:44.946Z,18.00
2018-09-11T03:17:13.757Z,18.00
2018-09-11T03:19:42.567Z,18.00
2018-09-11T03:22:11.383Z,18.00
2018-09-11T03:24:40.219Z,18.00
2018-09-11T03:27:09.080Z,18.00
2018-09-11T03:29:37.927Z,17.90
2018-09-11T03:32:06.923Z,17.90
2018-09-11T03:34:35.788Z,17.90
2018-09-11T03:37:04.728Z,17.90
2018-09-11T03:39:33.554Z,17.90
2018-09-11T03:42:02.388Z,17.90
2018-09-11T03:44:31.465Z,17.90
2018-09-11T03:47:00.289Z,17.90
2018-09-11T03:49:29.185Z,17.90
2018-09-11T03:51:58.019Z,17.90
2018-09-11T03:54:26.899Z,17.80
2018-09-11T03:56:55.789Z,17.80
2018-09-11T03:59:24.753Z,17.80
2018-09-11T04:01:53.552Z,17.80
2018-09-11T04:04:22.380Z,17.80
2018-09-11T04:06:51.345Z,17.80
2018-09-11T04:09:20.233Z,17.80
2018-09-11T04:11:49.440Z,17.70
2018-09-11T04:14:18.304Z,17.70
2018-09-11T04:16:48.894Z,17.70
2018-09-11T04:19:27.175Z,17.70
2018-09-11T04:21:56.130Z,17.80
2018-09-11T04:24:24.979Z,17.70
2018-09-11T04:26:53.816Z,17.70
2018-09-11T04:29:22.691Z,17.70
2018-09-11T04:31:51.622Z,17.70
2018-09-11T04:34:20.441Z,17.70
2018-09-11T04:36:49.280Z,17.70
2018-09-11T04:39:18.758Z,17.70
2018-09-11T04:41:47.631Z,17.70
2018-09-11T04:44:16.515Z,17.60
2018-09-11T04:46:45.439Z,17.60
2018-09-11T04:49:14.239Z,17.60
2018-09-11T04:51:43.194Z,17.60
2018-09-11T04:54:12.192Z,17.60
2018-09-11T04:56:41.067Z,17.60
2018-09-11T04:59:09.996Z,17.60
2018-09-11T05:01:38.869Z,17.60
2018-09-11T05:04:07.688Z,17.60
2018-09-11T05:06:36.523Z,17.60
2018-09-11T05:09:07.924Z,17.60
2018-09-11T05:11:36.842Z,17.60
2018-09-11T05:14:06.288Z,17.60
2018-09-11T05:16:35.213Z,17.50
2018-09-11T05:19:04.711Z,17.40
2018-09-11T05:24:02.443Z,17.40
2018-09-11T05:26:31.351Z,17.50
2018-09-11T05:41:26.018Z,17.70
2018-09-11T05:43:54.932Z,17.70
2018-09-11T05:46:23.777Z,17.60
2018-09-11T05:48:52.630Z,17.60
2018-09-11T05:51:21.491Z,17.60
2018-09-11T05:53:50.335Z,17.60
2018-09-11T05:56:19.181Z,17.60
2018-09-11T05:58:48.119Z,17.60
2018-09-11T06:01:17.090Z,17.60
2018-09-11T06:03:46.057Z,17.60
2018-09-11T06:06:15.086Z,17.60
2018-09-11T06:08:44.045Z,17.70
2018-09-11T06:11:12.921Z,17.70
2018-09-11T06:13:41.849Z,17.70
2018-09-11T06:16:11.201Z,17.70
2018-09-11T06:18:40.057Z,17.70
2018-09-11T06:21:08.872Z,17.70
2018-09-11T06:23:37.730Z,17.80
2018-09-11T06:26:06.590Z,17.80
2018-09-11T06:28:35.435Z,17.80
2018-09-11T06:31:04.269Z,17.90
2018-09-11T06:33:33.174Z,17.90
2018-09-11T06:36:02.016Z,17.90
2018-09-11T06:38:30.826Z,17.90
2018-09-11T06:40:59.777Z,18.00
2018-09-11T06:43:28.513Z,18.00
2018-09-11T06:45:57.341Z,18.00
2018-09-11T06:48:26.564Z,18.10
2018-09-11T06:50:55.487Z,18.10
2018-09-11T06:53:24.401Z,18.20
2018-09-11T06:55:53.374Z,18.20
2018-09-11T06:58:22.270Z,18.30
2018-09-11T07:00:51.564Z,18.30
2018-09-11T07:03:20.383Z,18.40
2018-09-11T07:23:14.855Z,18.80
2018-09-11T07:25:43.790Z,18.80
2018-09-11T07:28:12.646Z,18.80
2018-09-11T11:29:04.965Z,27.80
2018-09-11T11:31:34.062Z,27.80
2018-09-11T11:34:02.942Z,27.70
2018-09-11T11:36:32.687Z,27.70
2018-09-11T11:39:01.529Z,27.70
2018-09-11T11:41:30.432Z,27.70
2018-09-11T11:43:59.293Z,27.70
2018-09-11T11:46:28.299Z,27.70
2018-09-11T11:48:57.184Z,27.70
2018-09-11T11:51:26.104Z,27.70
2018-09-11T11:53:54.988Z,27.70
2018-09-11T11:56:23.887Z,27.60
2018-09-11T11:58:52.786Z,27.70
2018-09-11T12:01:21.665Z,27.70
2018-09-11T12:03:50.518Z,27.60
2018-09-11T12:06:19.451Z,27.60
2018-09-11T12:08:48.341Z,27.60
2018-09-11T12:11:17.225Z,27.60
2018-09-11T12:13:46.173Z,27.50
2018-09-11T12:16:15.093Z,27.60
2018-09-11T12:18:43.954Z,27.60
2018-09-11T12:21:13.895Z,27.50
2018-09-11T12:23:42.750Z,27.50
2018-09-11T12:26:11.720Z,27.50
2018-09-11T12:28:40.833Z,27.40
2018-09-11T12:31:09.785Z,27.40
2018-09-11T12:33:38.665Z,27.40
2018-09-11T12:36:07.598Z,27.30
2018-09-11T12:38:36.446Z,27.30
2018-09-11T12:41:05.463Z,27.20
2018-09-11T12:43:34.331Z,27.20
2018-09-11T12:46:03.546Z,27.20
2018-09-11T12:48:32.398Z,27.10
2018-09-11T12:51:01.168Z,27.10
2018-09-11T12:53:30.128Z,27.10
2018-09-11T12:55:58.988Z,27.00
2018-09-11T12:58:27.851Z,27.00
2018-09-11T13:00:56.688Z,27.00
2018-09-11T13:03:25.597Z,27.00
2018-09-11T13:05:54.487Z,27.00
2018-09-11T13:08:23.365Z,27.00
2018-09-11T13:10:52.187Z,26.90
2018-09-11T13:13:21.230Z,26.90
2018-09-11T13:15:50.131Z,26.90
2018-09-11T13:18:19.048Z,26.80
2018-09-11T13:20:47.895Z,26.80
2018-09-11T13:23:16.800Z,26.70
2018-09-11T13:25:45.621Z,26.70
2018-09-11T13:28:14.474Z,26.70
2018-09-11T13:30:43.283Z,26.70
2018-09-11T13:33:12.160Z,26.70
2018-09-11T13:35:40.997Z,26.60
2018-09-11T13:38:09.899Z,26.60
2018-09-11T13:40:38.832Z,26.60
2018-09-11T13:43:08.188Z,26.60
2018-09-11T13:48:19.794Z,26.50
2018-09-11T13:50:48.623Z,26.50
2018-09-11T13:53:17.483Z,26.50
2018-09-11T13:55:46.304Z,26.50
2018-09-11T13:58:15.251Z,26.40
2018-09-11T14:00:44.096Z,26.40
2018-09-11T14:03:13.609Z,26.40
2018-09-11T14:05:43.081Z,26.30
2018-09-11T14:08:12.458Z,26.30
2018-09-11T14:10:41.472Z,26.30
2018-09-11T16:32:11.731Z,24.40
2018-09-11T16:34:40.577Z,24.40
2018-09-11T16:37:09.400Z,24.40
2018-09-11T16:39:38.252Z,24.30
2018-09-11T16:42:07.088Z,24.20
2018-09-11T16:44:36.009Z,24.20
2018-09-11T16:47:05.452Z,24.20
2018-09-11T16:49:34.283Z,24.20
2018-09-11T16:52:03.302Z,24.10
2018-09-11T16:54:32.224Z,24.10
2018-09-11T16:57:01.208Z,24.00
2018-09-11T16:59:30.981Z,24.00
2018-09-11T17:01:59.923Z,24.00
2018-09-11T17:04:28.808Z,24.00
2018-09-11T17:06:57.657Z,23.90
2018-09-11T17:09:26.559Z,23.90
2018-09-11T17:11:55.492Z,23.90
2018-09-11T17:14:24.504Z,23.80
2018-09-11T17:16:53.398Z,23.80
2018-09-11T17:19:22.824Z,23.80
2018-09-11T17:21:52.205Z,23.70
2018-09-11T17:24:21.298Z,23.70
2018-09-11T17:26:50.492Z,23.60
2018-09-11T17:29:19.474Z,23.60
2018-09-11T17:31:48.525Z,23.60
2018-09-11T17:34:17.644Z,23.60
2018-09-11T17:36:46.824Z,23.60
2018-09-11T17:39:15.998Z,23.50
2018-09-11T17:41:45.090Z,23.50
2018-09-11T17:44:14.222Z,23.50
2018-09-11T17:46:43.154Z,23.40
2018-09-11T17:49:12.402Z,23.40
2018-09-11T17:51:42.368Z,23.40
2018-09-11T17:54:11.580Z,23.40
2018-09-11T17:56:40.752Z,23.30
2018-09-11T17:59:10.019Z,23.30
2018-09-11T18:01:38.898Z,23.30
2018-09-11T18:04:07.832Z,23.30
2018-09-11T18:06:36.714Z,23.20
2018-09-11T18:09:06.991Z,23.20
2018-09-11T18:11:35.867Z,23.20
2018-09-11T18:14:04.688Z,23.20
2018-09-11T18:16:33.512Z,23.20
2018-09-11T18:19:02.363Z,23.20
2018-09-11T18:21:31.185Z,23.10
2018-09-11T18:24:00.088Z,23.10
2018-09-11T18:26:28.951Z,23.10
2018-09-11T18:28:57.959Z,23.10
2018-09-11T18:31:26.876Z,23.10
2018-09-11T18:33:55.741Z,23.10
2018-09-11T18:36:26.148Z,23.00
2018-09-11T18:38:55.466Z,23.00
2018-09-11T18:41:24.551Z,23.00
2018-09-11T18:43:54.048Z,23.00
2018-09-11T18:46:23.571Z,23.00
2018-09-11T18:48:52.779Z,22.90
2018-09-11T18:51:22.083Z,22.90
2018-09-11T18:53:51.318Z,22.90
2018-09-11T18:56:22.233Z,22.90
2018-09-11T18:58:52.450Z,22.90
2018-09-11T19:01:22.453Z,22.90
2018-09-11T19:03:51.893Z,22.80
2018-09-11T19:06:30.049Z,22.80
2018-09-11T19:09:00.097Z,22.80
2018-09-11T19:15:05.157Z,22.80
2018-09-11T19:17:34.991Z,22.70
2018-09-11T19:20:06.354Z,22.70
2018-09-11T19:22:35.904Z,22.70
2018-09-11T19:25:06.840Z,22.70
2018-09-11T19:27:37.328Z,22.70
2018-09-11T19:30:08.515Z,22.70
2018-09-11T19:32:37.409Z,22.60
2018-09-11T19:35:06.446Z,22.60
2018-09-11T19:37:35.514Z,22.60
2018-09-11T19:40:05.958Z,22.60
2018-09-11T19:42:35.047Z,22.60
2018-09-11T19:45:05.350Z,22.60
2018-09-11T19:47:34.429Z,22.60
2018-09-11T19:50:03.636Z,22.60
2018-09-11T19:52:34.548Z,22.50
2018-09-11T19:55:03.924Z,22.50
2018-09-11T19:57:38.434Z,22.50
2018-09-11T20:00:07.719Z,22.50
2018-09-11T20:02:36.673Z,22.50
2018-09-11T20:05:06.602Z,22.50
2018-09-11T20:07:36.716Z,22.40
2018-09-11T20:10:06.618Z,22.40
2018-09-11T20:12:36.502Z,22.40
2018-09-11T20:15:06.167Z,22.40
2018-09-11T20:17:35.220Z,22.40
2018-09-11T20:20:04.270Z,22.40
2018-09-11T20:22:33.187Z,22.30
2018-09-11T20:25:02.563Z,22.30
2018-09-11T20:27:31.564Z,22.40
2018-09-11T20:30:00.445Z,22.30
2018-09-11T20:32:29.290Z,22.30
2018-09-11T20:34:58.097Z,22.30
2018-09-11T20:37:27.083Z,22.30
2018-09-11T20:39:55.841Z,22.20
2018-09-11T20:42:24.730Z,22.20
2018-09-11T20:44:53.582Z,22.20
2018-09-11T20:47:22.415Z,22.20
2018-09-11T20:49:51.407Z,22.20
2018-09-11T20:52:20.240Z,22.20
2018-09-11T20:54:49.092Z,22.20
2018-09-11T20:57:17.971Z,22.20
2018-09-11T20:59:46.900Z,22.20
2018-09-11T21:02:15.874Z,22.10
2018-09-11T21:04:44.922Z,22.10
2018-09-11T21:07:13.851Z,22.10
2018-09-11T21:09:42.667Z,22.10
2018-09-11T21:12:11.507Z,22.10
2018-09-11T21:14:40.543Z,22.10
2018-09-11T21:17:09.660Z,22.10
2018-09-11T21:19:38.547Z,22.10
2018-09-11T21:22:07.478Z,22.10
2018-09-11T21:24:36.690Z,22.00
2018-09-11T21:27:05.674Z,22.00
2018-09-11T21:29:34.647Z,22.00
2018-09-11T21:32:03.871Z,22.00
2018-09-11T21:34:32.863Z,22.00
2018-09-11T21:37:01.803Z,22.00
2018-09-11T21:39:30.874Z,21.90
2018-09-11T21:41:59.771Z,21.90
2018-09-11T21:44:28.655Z,21.90
2018-09-11T21:46:57.603Z,21.90
2018-09-11T21:49:26.468Z,21.90
2018-09-11T21:51:55.301Z,21.90
2018-09-11T21:54:24.172Z,21.90
2018-09-11T21:56:53.022Z,21.80
2018-09-11T21:59:21.865Z,21.90
2018-09-11T22:01:52.296Z,21.80
2018-09-11T22:04:22.185Z,21.80
2018-09-11T22:06:51.044Z,21.80
2018-09-11T22:09:20.399Z,21.80
2018-09-11T22:11:49.324Z,21.80
2018-09-11T22:14:19.720Z,21.80
2018-09-11T22:16:48.542Z,21.80
2018-09-11T22:19:17.767Z,21.70
2018-09-11T22:21:46.609Z,21.70
2018-09-11T22:24:15.456Z,21.70
2018-09-11T22:26:45.804Z,21.70
2018-09-11T22:29:14.667Z,21.70
2018-09-11T22:31:43.542Z,21.70
2018-09-11T22:34:12.385Z,21.70
2018-09-11T22:36:41.534Z,21.70
2018-09-11T22:39:10.465Z,21.70
2018-09-11T22:41:42.455Z,21.70
2018-09-11T22:44:11.847Z,21.70
2018-09-11T22:46:40.673Z,21.70
2018-09-11T22:49:09.534Z,21.60
2018-09-11T22:51:38.396Z,21.60
2018-09-11T22:54:07.306Z,21.60
2018-09-11T22:56:36.137Z,21.60
2018-09-11T22:59:04.979Z,21.60
2018-09-11T23:01:33.924Z,21.60
2018-09-11T23:04:02.727Z,21.60
2018-09-11T23:06:31.668Z,21.60
2018-09-11T23:09:00.533Z,21.60
2018-09-11T23:11:29.352Z,21.60
2018-09-11T23:13:58.186Z,21.60
2018-09-11T23:16:27.131Z,21.60
2018-09-11T23:18:56.039Z,21.60
2018-09-11T23:21:24.963Z,21.60
2018-09-11T23:23:53.816Z,21.50
2018-09-11T23:26:22.707Z,21.50
2018-09-11T23:28:51.559Z,21.50
2018-09-11T23:31:20.440Z,21.50
2018-09-11T23:33:49.339Z,21.60
2018-09-11T23:36:18.336Z,21.40
2018-09-11T23:38:47.146Z,21.50
2018-09-11T23:41:16.029Z,21.50
2018-09-11T23:43:46.144Z,21.50
2018-09-11T23:46:14.979Z,21.50
2018-09-11T23:48:43.819Z,21.50
2018-09-11T23:51:12.635Z,21.50
2018-09-11T23:53:41.479Z,21.40
2018-09-11T23:56:10.291Z,21.40
2018-09-11T23:58:39.097Z,21.50
